Chief — WBY3781 — position and weather

sailwx.info

Track history (hours):
 
Tides and Currents Weather Stations Pressure Air Temp Water Temp Dewpoint Dewpoint Depression Visibility Wind Speed Wind Dir Waves Ship Positions

Chief

Owner: T & C TOWING INC, ELIZABETH CITY, NC. More information available from US FCC via Universal Licensing System and Coast Guard Vessel Documentation Center.

Last reported at 2017-Dec-11 01:17 UTC. Time now 2017-Dec-11 21:18 UTC.
Position N 39°05' W 076°24'.

Length 30 m; draft 0.3 m.

Type: Tug. MMSI: 280001.

Date/timePositionNaut miles runAvg speedWind from/ knotsBaromVisibWave heightAir tempDewpointWater temp
2017-Dec-11 01:17N 39°05' W 076°24'2 6.4
2017-Dec-11 01:00N 39°07' W 076°24'4 6.4
2017-Dec-11 00:22N 39°11' W 076°26'2 5.7
2017-Dec-11 00:00N 39°11' W 076°29'3 5.7
2017-Dec-10 23:30N 39°13' W 076°32'1 2.0
2017-Dec-10 22:59N 39°14' W 076°33'1 2.3
2017-Dec-10 22:30N 39°13' W 076°34'1 1.2
2017-Dec-10 22:00N 39°13' W 076°35'0 0.9
2017-Dec-10 21:30N 39°13' W 076°34'1 1.0
2017-Dec-10 20:06N 39°15' W 076°34'0 3.1
2017-Dec-10 19:59N 39°15' W 076°34'2 3.3
2017-Dec-10 19:30N 39°13' W 076°34'0 0.0
2017-Dec-10 19:00N 39°13' W 076°34'0 0.0
2017-Dec-10 18:27N 39°13' W 076°34'0 0.0
2017-Dec-10 18:00N 39°13' W 076°34'0 0.0
2017-Dec-10 17:24N 39°13' W 076°34'0 0.0
2017-Dec-10 17:00N 39°13' W 076°34'0 0.0
2017-Dec-10 16:27N 39°13' W 076°34'0 0.0
2017-Dec-10 16:00N 39°13' W 076°34'0 0.0
2017-Dec-10 15:27N 39°13' W 076°34'0 0.0
2017-Dec-10 14:57N 39°13' W 076°34'0 0.0
2017-Dec-10 14:30N 39°13' W 076°34'0 0.0
2017-Dec-10 14:00N 39°13' W 076°34'0 0.0
2017-Dec-10 13:30N 39°13' W 076°34'0 0.0
2017-Dec-10 12:57N 39°13' W 076°34'0 0.0
2017-Dec-10 12:30N 39°13' W 076°34'0 0.0
2017-Dec-10 12:00N 39°13' W 076°34'0 0.0
2017-Dec-10 11:27N 39°13' W 076°34'0 0.0
2017-Dec-10 10:57N 39°13' W 076°34'0 0.0
2017-Dec-10 10:27N 39°13' W 076°34'0 0.0
2017-Dec-10 09:57N 39°13' W 076°34'0 0.0
2017-Dec-10 09:30N 39°13' W 076°34'0 0.0
2017-Dec-10 08:48N 39°13' W 076°34'0 0.0
2017-Dec-10 08:30N 39°13' W 076°34'0 0.0
2017-Dec-10 08:00N 39°13' W 076°34'0 0.0
2017-Dec-10 07:27N 39°13' W 076°34'0 0.0
2017-Dec-10 06:57N 39°13' W 076°34'0 0.0
2017-Dec-10 06:30N 39°13' W 076°34'0 0.0
2017-Dec-10 06:00N 39°13' W 076°34'0 0.0
2017-Dec-10 05:30N 39°13' W 076°34'0 0.0
2017-Dec-10 04:57N 39°13' W 076°34'0 0.0
2017-Dec-10 04:30N 39°13' W 076°34'0 0.0
2017-Dec-10 03:57N 39°13' W 076°34'0 0.0
2017-Dec-10 03:30N 39°13' W 076°34'0 0.0
2017-Dec-10 03:00N 39°13' W 076°34'0 0.0
2017-Dec-10 02:30N 39°13' W 076°34'0 0.0
2017-Dec-10 02:00N 39°13' W 076°34'0 0.0
2017-Dec-10 01:24N 39°13' W 076°34'0 0.0
2017-Dec-10 01:00N 39°13' W 076°34'0 0.0
2017-Dec-10 00:30N 39°13' W 076°34'0 0.0
2017-Dec-09 23:45N 39°13' W 076°34'0 0.0
2017-Dec-09 23:27N 39°13' W 076°34'0 0.0
2017-Dec-09 22:57N 39°13' W 076°34'0 0.0
2017-Dec-09 20:42N 39°13' W 076°34'0 0.0
2017-Dec-09 18:54N 39°13' W 076°34'0 0.0
2017-Dec-09 17:33N 39°13' W 076°34'0 0.1
2017-Dec-09 17:30N 39°13' W 076°34'0 0.0
2017-Dec-09 16:51N 39°13' W 076°34'0 0.0
2017-Dec-09 16:18N 39°13' W 076°34'0 0.0
2017-Dec-09 16:00N 39°13' W 076°34'0 0.0
2017-Dec-09 15:30N 39°13' W 076°34'0 0.0
2017-Dec-09 15:00N 39°13' W 076°34'0 0.0
2017-Dec-09 14:27N 39°13' W 076°34'0 0.0
2017-Dec-09 13:48N 39°13' W 076°34'0 0.0
2017-Dec-09 13:27N 39°13' W 076°34'0 0.0
2017-Dec-09 12:48N 39°13' W 076°34'0 0.0
2017-Dec-09 12:27N 39°13' W 076°34'0 0.0
2017-Dec-09 12:00N 39°13' W 076°34'0 0.0
2017-Dec-09 11:27N 39°13' W 076°34'0 0.0
2017-Dec-09 11:00N 39°13' W 076°34'0 0.0
2017-Dec-09 10:30N 39°13' W 076°34'0 0.0
2017-Dec-09 10:00N 39°13' W 076°34'0 0.0
2017-Dec-09 09:30N 39°13' W 076°34'0 0.0
2017-Dec-09 08:57N 39°13' W 076°34'0 0.0
2017-Dec-09 08:24N 39°13' W 076°34'0 0.0
2017-Dec-09 07:57N 39°13' W 076°34'0 0.0
2017-Dec-09 07:30N 39°13' W 076°34'0 0.0
2017-Dec-09 06:57N 39°13' W 076°34'0 0.0
2017-Dec-09 06:27N 39°13' W 076°34'0 0.0
2017-Dec-09 05:51N 39°13' W 076°34'0 0.0
2017-Dec-09 05:30N 39°13' W 076°34'0 0.0
2017-Dec-09 04:48N 39°13' W 076°34'0 0.0
2017-Dec-09 04:24N 39°13' W 076°34'0 0.0
2017-Dec-09 04:00N 39°13' W 076°34'0 0.0
2017-Dec-09 03:30N 39°13' W 076°34'0 0.0
2017-Dec-09 03:00N 39°13' W 076°34'0 0.0
2017-Dec-09 02:27N 39°13' W 076°34'0 0.0
2017-Dec-09 02:00N 39°13' W 076°34'0 0.0
2017-Dec-09 01:27N 39°13' W 076°34'0 0.0
2017-Dec-09 01:00N 39°13' W 076°34'0 0.0
2017-Dec-09 00:30N 39°13' W 076°34'0 0.0
2017-Dec-09 00:00N 39°13' W 076°34'0 0.0
2017-Dec-08 23:30N 39°13' W 076°34'0 0.0
2017-Dec-08 23:00N 39°13' W 076°34'0 0.0
2017-Dec-08 22:27N 39°13' W 076°34'0 0.0
2017-Dec-08 22:00N 39°13' W 076°34'0 0.0
2017-Dec-08 21:27N 39°13' W 076°34'0 0.0
2017-Dec-08 20:58N 39°13' W 076°34'0 0.0
2017-Dec-08 20:30N 39°13' W 076°34'0 0.1
2017-Dec-08 16:34N 39°14' W 076°34'0 0.6
2017-Dec-08 16:30N 39°13' W 076°34'1 2.3
2017-Dec-08 16:00N 39°15' W 076°34'1 1.4
2017-Dec-08 15:31N 39°15' W 076°33'7 7.6
2017-Dec-08 14:33N 39°10' W 076°26'0 8.8
2017-Dec-08 14:30N 39°10' W 076°25'10 8.5
2017-Dec-08 13:19N 39°00' W 076°23'3 8.5
2017-Dec-08 13:00N 38°57' W 076°24'5 8.4
2017-Dec-08 12:24N 38°53' W 076°26'115 4.7
2017-Dec-07 11:40N 36°57' W 076°24'2 6.7
2017-Dec-07 11:26N 36°58' W 076°22'  
2017-Dec-04 01:28N 36°57' W 076°20'3 7.5
2017-Dec-04 01:00N 36°54' W 076°20'1 2.4
2017-Dec-04 00:30N 36°52' W 076°20'3 5.7
2017-Dec-04 00:00N 36°50' W 076°18'2 4.6
2017-Dec-03 23:30N 36°48' W 076°17'0 0.0
2017-Dec-03 23:01N 36°48' W 076°17'0 0.0
2017-Dec-03 22:30N 36°48' W 076°17'0 0.2
2017-Dec-03 22:00N 36°48' W 076°17'0 0.2
2017-Dec-03 21:30N 36°48' W 076°17'0 0.1
2017-Dec-03 21:00N 36°48' W 076°17'0 0.1
2017-Dec-03 20:30N 36°48' W 076°17'2 4.1
2017-Dec-03 20:00N 36°50' W 076°18'3 6.3
2017-Dec-03 19:30N 36°53' W 076°20'5 7.4
2017-Dec-03 18:52N 36°57' W 076°20'133 5.6
2017-Dec-02 18:55N 39°10' W 076°26'2 5.8
2017-Dec-02 18:30N 39°11' W 076°29'3 5.5
2017-Dec-02 18:01N 39°13' W 076°32'2 4.6
2017-Dec-02 17:30N 39°13' W 076°35'0 0.6
2017-Dec-02 17:00N 39°13' W 076°35'0 0.0
2017-Dec-02 16:30N 39°13' W 076°35'0 0.0
2017-Dec-02 15:59N 39°13' W 076°35'0 0.0
2017-Dec-02 15:29N 39°13' W 076°35'0 0.0
2017-Dec-02 14:56N 39°13' W 076°35'0 0.0
2017-Dec-02 14:29N 39°13' W 076°35'0 0.0
2017-Dec-02 13:58N 39°13' W 076°35'0 0.0
2017-Dec-02 13:29N 39°13' W 076°35'0 0.0
2017-Dec-02 12:59N 39°13' W 076°35'0 0.0
2017-Dec-02 12:29N 39°13' W 076°35'0 0.0
2017-Dec-02 11:55N 39°13' W 076°35'0 0.0
2017-Dec-02 11:30N 39°13' W 076°35'0 0.0
2017-Dec-02 11:00N 39°13' W 076°35'0 0.0
2017-Dec-02 10:31N 39°13' W 076°35'0 0.0
2017-Dec-02 10:01N 39°13' W 076°35'0 0.0
2017-Dec-02 09:24N 39°13' W 076°35'0 0.0
2017-Dec-02 09:00N 39°13' W 076°35'0 0.0
2017-Dec-02 08:28N 39°13' W 076°35'0 0.0
2017-Dec-02 08:00N 39°13' W 076°35'0 0.5
2017-Dec-02 07:30N 39°13' W 076°35'1 1.6
2017-Dec-02 07:00N 39°13' W 076°34'1 2.1
2017-Dec-02 06:30N 39°13' W 076°35'1 1.6
2017-Dec-02 06:00N 39°13' W 076°34'0 0.4
2017-Dec-02 05:28N 39°13' W 076°34'1 1.9
2017-Dec-02 05:00N 39°13' W 076°33'5 7.2
2017-Dec-02 04:20N 39°11' W 076°27'3 8.3
2017-Dec-02 04:00N 39°09' W 076°25'4 8.1
2017-Dec-02 03:30N 39°05' W 076°24'5 8.0
2017-Dec-02 02:53N 39°00' W 076°23'8 7.8
2017-Dec-02 01:52N 38°53' W 076°26'116 7.8
2017-Dec-01 11:04N 36°57' W 076°20'1 8.3
2017-Dec-01 11:00N 36°56' W 076°20'3 7.0
2017-Dec-01 10:30N 36°53' W 076°20'1 2.6
2017-Dec-01 10:00N 36°52' W 076°19'2 4.4
2017-Dec-01 09:30N 36°50' W 076°18'2 3.6
2017-Dec-01 09:00N 36°48' W 076°17'0 0.4
2017-Dec-01 08:30N 36°48' W 076°17'0 0.2
2017-Dec-01 08:01N 36°48' W 076°17'0 0.1
2017-Dec-01 07:30N 36°48' W 076°17'0 0.1
2017-Dec-01 07:00N 36°48' W 076°17'0 0.1
2017-Dec-01 06:30N 36°48' W 076°17'0 0.7
2017-Dec-01 06:00N 36°48' W 076°17'2 4.2
2017-Dec-01 05:30N 36°51' W 076°18'4 7.1
2017-Dec-01 04:58N 36°54' W 076°20'  
Track history (hours):
 
Tides and Currents Weather Stations Pressure Air Temp Water Temp Dewpoint Dewpoint Depression Visibility Wind Speed Wind Dir Waves Ship Positions

Chief

Owner: T & C TOWING INC, ELIZABETH CITY, NC. More information available from US FCC via Universal Licensing System and Coast Guard Vessel Documentation Center.

Last reported at 2017-Dec-11 01:17 UTC. Time now 2017-Dec-11 21:18 UTC.
Position N 39°05' W 076°24'.

Length 30 m; draft 0.3 m.

Type: Tug. MMSI: 280001.

Date/timePositionNaut miles runAvg speedWind from/ knotsBaromVisibWave heightAir tempDewpointWater temp
2017-Dec-11 01:17N 39°05' W 076°24'2 6.4
2017-Dec-11 01:00N 39°07' W 076°24'4 6.4
2017-Dec-11 00:22N 39°11' W 076°26'2 5.7
2017-Dec-11 00:00N 39°11' W 076°29'3 5.7
2017-Dec-10 23:30N 39°13' W 076°32'1 2.0
2017-Dec-10 22:59N 39°14' W 076°33'1 2.3
2017-Dec-10 22:30N 39°13' W 076°34'1 1.2
2017-Dec-10 22:00N 39°13' W 076°35'0 0.9
2017-Dec-10 21:30N 39°13' W 076°34'1 1.0
2017-Dec-10 20:06N 39°15' W 076°34'0 3.1
2017-Dec-10 19:59N 39°15' W 076°34'2 3.3
2017-Dec-10 19:30N 39°13' W 076°34'0 0.0
2017-Dec-10 19:00N 39°13' W 076°34'0 0.0
2017-Dec-10 18:27N 39°13' W 076°34'0 0.0
2017-Dec-10 18:00N 39°13' W 076°34'0 0.0
2017-Dec-10 17:24N 39°13' W 076°34'0 0.0
2017-Dec-10 17:00N 39°13' W 076°34'0 0.0
2017-Dec-10 16:27N 39°13' W 076°34'0 0.0
2017-Dec-10 16:00N 39°13' W 076°34'0 0.0
2017-Dec-10 15:27N 39°13' W 076°34'0 0.0
2017-Dec-10 14:57N 39°13' W 076°34'0 0.0
2017-Dec-10 14:30N 39°13' W 076°34'0 0.0
2017-Dec-10 14:00N 39°13' W 076°34'0 0.0
2017-Dec-10 13:30N 39°13' W 076°34'0 0.0
2017-Dec-10 12:57N 39°13' W 076°34'0 0.0
2017-Dec-10 12:30N 39°13' W 076°34'0 0.0
2017-Dec-10 12:00N 39°13' W 076°34'0 0.0
2017-Dec-10 11:27N 39°13' W 076°34'0 0.0
2017-Dec-10 10:57N 39°13' W 076°34'0 0.0
2017-Dec-10 10:27N 39°13' W 076°34'0 0.0
2017-Dec-10 09:57N 39°13' W 076°34'0 0.0
2017-Dec-10 09:30N 39°13' W 076°34'0 0.0
2017-Dec-10 08:48N 39°13' W 076°34'0 0.0
2017-Dec-10 08:30N 39°13' W 076°34'0 0.0
2017-Dec-10 08:00N 39°13' W 076°34'0 0.0
2017-Dec-10 07:27N 39°13' W 076°34'0 0.0
2017-Dec-10 06:57N 39°13' W 076°34'0 0.0
2017-Dec-10 06:30N 39°13' W 076°34'0 0.0
2017-Dec-10 06:00N 39°13' W 076°34'0 0.0
2017-Dec-10 05:30N 39°13' W 076°34'0 0.0
2017-Dec-10 04:57N 39°13' W 076°34'0 0.0
2017-Dec-10 04:30N 39°13' W 076°34'0 0.0
2017-Dec-10 03:57N 39°13' W 076°34'0 0.0
2017-Dec-10 03:30N 39°13' W 076°34'0 0.0
2017-Dec-10 03:00N 39°13' W 076°34'0 0.0
2017-Dec-10 02:30N 39°13' W 076°34'0 0.0
2017-Dec-10 02:00N 39°13' W 076°34'0 0.0
2017-Dec-10 01:24N 39°13' W 076°34'0 0.0
2017-Dec-10 01:00N 39°13' W 076°34'0 0.0
2017-Dec-10 00:30N 39°13' W 076°34'0 0.0
2017-Dec-09 23:45N 39°13' W 076°34'0 0.0
2017-Dec-09 23:27N 39°13' W 076°34'0 0.0
2017-Dec-09 22:57N 39°13' W 076°34'0 0.0
2017-Dec-09 20:42N 39°13' W 076°34'0 0.0
2017-Dec-09 18:54N 39°13' W 076°34'0 0.0
2017-Dec-09 17:33N 39°13' W 076°34'0 0.1
2017-Dec-09 17:30N 39°13' W 076°34'0 0.0
2017-Dec-09 16:51N 39°13' W 076°34'0 0.0
2017-Dec-09 16:18N 39°13' W 076°34'0 0.0
2017-Dec-09 16:00N 39°13' W 076°34'0 0.0
2017-Dec-09 15:30N 39°13' W 076°34'0 0.0
2017-Dec-09 15:00N 39°13' W 076°34'0 0.0
2017-Dec-09 14:27N 39°13' W 076°34'0 0.0
2017-Dec-09 13:48N 39°13' W 076°34'0 0.0
2017-Dec-09 13:27N 39°13' W 076°34'0 0.0
2017-Dec-09 12:48N 39°13' W 076°34'0 0.0
2017-Dec-09 12:27N 39°13' W 076°34'0 0.0
2017-Dec-09 12:00N 39°13' W 076°34'0 0.0
2017-Dec-09 11:27N 39°13' W 076°34'0 0.0
2017-Dec-09 11:00N 39°13' W 076°34'0 0.0
2017-Dec-09 10:30N 39°13' W 076°34'0 0.0
2017-Dec-09 10:00N 39°13' W 076°34'0 0.0
2017-Dec-09 09:30N 39°13' W 076°34'0 0.0
2017-Dec-09 08:57N 39°13' W 076°34'0 0.0
2017-Dec-09 08:24N 39°13' W 076°34'0 0.0
2017-Dec-09 07:57N 39°13' W 076°34'0 0.0
2017-Dec-09 07:30N 39°13' W 076°34'0 0.0
2017-Dec-09 06:57N 39°13' W 076°34'0 0.0
2017-Dec-09 06:27N 39°13' W 076°34'0 0.0
2017-Dec-09 05:51N 39°13' W 076°34'0 0.0
2017-Dec-09 05:30N 39°13' W 076°34'0 0.0
2017-Dec-09 04:48N 39°13' W 076°34'0 0.0
2017-Dec-09 04:24N 39°13' W 076°34'0 0.0
2017-Dec-09 04:00N 39°13' W 076°34'0 0.0
2017-Dec-09 03:30N 39°13' W 076°34'0 0.0
2017-Dec-09 03:00N 39°13' W 076°34'0 0.0
2017-Dec-09 02:27N 39°13' W 076°34'0 0.0
2017-Dec-09 02:00N 39°13' W 076°34'0 0.0
2017-Dec-09 01:27N 39°13' W 076°34'0 0.0
2017-Dec-09 01:00N 39°13' W 076°34'0 0.0
2017-Dec-09 00:30N 39°13' W 076°34'0 0.0
2017-Dec-09 00:00N 39°13' W 076°34'0 0.0
2017-Dec-08 23:30N 39°13' W 076°34'0 0.0
2017-Dec-08 23:00N 39°13' W 076°34'0 0.0
2017-Dec-08 22:27N 39°13' W 076°34'0 0.0
2017-Dec-08 22:00N 39°13' W 076°34'0 0.0
2017-Dec-08 21:27N 39°13' W 076°34'0 0.0
2017-Dec-08 20:58N 39°13' W 076°34'0 0.0
2017-Dec-08 20:30N 39°13' W 076°34'0 0.1
2017-Dec-08 16:34N 39°14' W 076°34'0 0.6
2017-Dec-08 16:30N 39°13' W 076°34'1 2.3
2017-Dec-08 16:00N 39°15' W 076°34'1 1.4
2017-Dec-08 15:31N 39°15' W 076°33'7 7.6
2017-Dec-08 14:33N 39°10' W 076°26'0 8.8
2017-Dec-08 14:30N 39°10' W 076°25'10 8.5
2017-Dec-08 13:19N 39°00' W 076°23'3 8.5
2017-Dec-08 13:00N 38°57' W 076°24'5 8.4
2017-Dec-08 12:24N 38°53' W 076°26'115 4.7
2017-Dec-07 11:40N 36°57' W 076°24'2 6.7
2017-Dec-07 11:26N 36°58' W 076°22'  
2017-Dec-04 01:28N 36°57' W 076°20'3 7.5
2017-Dec-04 01:00N 36°54' W 076°20'1 2.4
2017-Dec-04 00:30N 36°52' W 076°20'3 5.7
2017-Dec-04 00:00N 36°50' W 076°18'2 4.6
2017-Dec-03 23:30N 36°48' W 076°17'0 0.0
2017-Dec-03 23:01N 36°48' W 076°17'0 0.0
2017-Dec-03 22:30N 36°48' W 076°17'0 0.2
2017-Dec-03 22:00N 36°48' W 076°17'0 0.2
2017-Dec-03 21:30N 36°48' W 076°17'0 0.1
2017-Dec-03 21:00N 36°48' W 076°17'0 0.1
2017-Dec-03 20:30N 36°48' W 076°17'2 4.1
2017-Dec-03 20:00N 36°50' W 076°18'3 6.3
2017-Dec-03 19:30N 36°53' W 076°20'5 7.4
2017-Dec-03 18:52N 36°57' W 076°20'133 5.6
2017-Dec-02 18:55N 39°10' W 076°26'2 5.8
2017-Dec-02 18:30N 39°11' W 076°29'3 5.5
2017-Dec-02 18:01N 39°13' W 076°32'2 4.6
2017-Dec-02 17:30N 39°13' W 076°35'0 0.6
2017-Dec-02 17:00N 39°13' W 076°35'0 0.0
2017-Dec-02 16:30N 39°13' W 076°35'0 0.0
2017-Dec-02 15:59N 39°13' W 076°35'0 0.0
2017-Dec-02 15:29N 39°13' W 076°35'0 0.0
2017-Dec-02 14:56N 39°13' W 076°35'0 0.0
2017-Dec-02 14:29N 39°13' W 076°35'0 0.0
2017-Dec-02 13:58N 39°13' W 076°35'0 0.0
2017-Dec-02 13:29N 39°13' W 076°35'0 0.0
2017-Dec-02 12:59N 39°13' W 076°35'0 0.0
2017-Dec-02 12:29N 39°13' W 076°35'0 0.0
2017-Dec-02 11:55N 39°13' W 076°35'0 0.0
2017-Dec-02 11:30N 39°13' W 076°35'0 0.0
2017-Dec-02 11:00N 39°13' W 076°35'0 0.0
2017-Dec-02 10:31N 39°13' W 076°35'0 0.0
2017-Dec-02 10:01N 39°13' W 076°35'0 0.0
2017-Dec-02 09:24N 39°13' W 076°35'0 0.0
2017-Dec-02 09:00N 39°13' W 076°35'0 0.0
2017-Dec-02 08:28N 39°13' W 076°35'0 0.0
2017-Dec-02 08:00N 39°13' W 076°35'0 0.5
2017-Dec-02 07:30N 39°13' W 076°35'1 1.6
2017-Dec-02 07:00N 39°13' W 076°34'1 2.1
2017-Dec-02 06:30N 39°13' W 076°35'1 1.6
2017-Dec-02 06:00N 39°13' W 076°34'0 0.4
2017-Dec-02 05:28N 39°13' W 076°34'1 1.9
2017-Dec-02 05:00N 39°13' W 076°33'5 7.2
2017-Dec-02 04:20N 39°11' W 076°27'3 8.3
2017-Dec-02 04:00N 39°09' W 076°25'4 8.1
2017-Dec-02 03:30N 39°05' W 076°24'5 8.0
2017-Dec-02 02:53N 39°00' W 076°23'8 7.8
2017-Dec-02 01:52N 38°53' W 076°26'116 7.8
2017-Dec-01 11:04N 36°57' W 076°20'1 8.3
2017-Dec-01 11:00N 36°56' W 076°20'3 7.0
2017-Dec-01 10:30N 36°53' W 076°20'1 2.6
2017-Dec-01 10:00N 36°52' W 076°19'2 4.4
2017-Dec-01 09:30N 36°50' W 076°18'2 3.6
2017-Dec-01 09:00N 36°48' W 076°17'0 0.4
2017-Dec-01 08:30N 36°48' W 076°17'0 0.2
2017-Dec-01 08:01N 36°48' W 076°17'0 0.1
2017-Dec-01 07:30N 36°48' W 076°17'0 0.1
2017-Dec-01 07:00N 36°48' W 076°17'0 0.1
2017-Dec-01 06:30N 36°48' W 076°17'0 0.7
2017-Dec-01 06:00N 36°48' W 076°17'2 4.2
2017-Dec-01 05:30N 36°51' W 076°18'4 7.1
2017-Dec-01 04:58N 36°54' W 076°20'  

Dump ship's entire track history